createdAt,value
2023-05-07T00:02:20.302Z,3.03
2023-05-07T00:04:47.078Z,2.13
2023-05-07T00:07:13.738Z,2.10
2023-05-07T00:09:40.953Z,2.30
2023-05-07T00:12:08.626Z,1.98
2023-05-07T00:14:35.276Z,2.60
2023-05-07T00:17:01.928Z,2.10
2023-05-07T00:19:28.666Z,2.33
2023-05-07T00:21:56.847Z,2.20
2023-05-07T00:24:23.579Z,2.33
2023-05-07T00:26:50.316Z,1.98
2023-05-07T00:29:16.966Z,2.42
2023-05-07T00:31:43.589Z,2.15
2023-05-07T00:34:10.431Z,1.92
2023-05-07T00:36:37.068Z,2.17
2023-05-07T00:39:04.650Z,2.45
2023-05-07T00:41:34.306Z,2.38
2023-05-07T00:44:01.706Z,1.70
2023-05-07T00:46:28.436Z,2.40
2023-05-07T00:48:55.690Z,1.75
2023-05-07T00:51:22.847Z,2.08
2023-05-07T00:53:49.558Z,1.80
2023-05-07T00:56:16.741Z,2.05
2023-05-07T00:58:43.862Z,2.13
2023-05-07T01:01:10.761Z,1.90
2023-05-07T01:03:37.536Z,2.25
2023-05-07T01:06:06.843Z,2.22
2023-05-07T01:08:36.111Z,1.98
2023-05-07T01:11:03.267Z,1.67
2023-05-07T01:13:30.492Z,1.95
2023-05-07T01:15:57.177Z,2.63
2023-05-07T01:18:24.065Z,2.10
2023-05-07T01:20:50.796Z,2.40
2023-05-07T01:23:19.129Z,2.08
2023-05-07T01:25:54.096Z,2.35
2023-05-07T01:28:22.894Z,2.38
2023-05-07T01:30:56.754Z,2.15
2023-05-07T01:33:25.936Z,2.20
2023-05-07T01:35:54.772Z,1.88
2023-05-07T01:38:24.877Z,2.20
2023-05-07T01:40:51.970Z,1.88
2023-05-07T01:43:20.499Z,2.10
2023-05-07T01:45:47.514Z,2.20
2023-05-07T01:48:15.446Z,2.13
2023-05-07T01:50:43.808Z,2.03
2023-05-07T01:53:10.540Z,1.95
2023-05-07T01:55:38.227Z,1.98
2023-05-07T01:58:05.652Z,2.03
2023-05-07T02:00:32.731Z,2.20
2023-05-07T02:02:59.615Z,2.30
2023-05-07T02:05:37.910Z,2.20
2023-05-07T02:08:11.950Z,2.00
2023-05-07T02:10:38.670Z,2.42
2023-05-07T02:13:07.316Z,2.13
2023-05-07T02:15:34.146Z,2.08
2023-05-07T02:18:07.850Z,1.83
2023-05-07T02:20:34.743Z,2.33
2023-05-07T02:23:01.484Z,2.45
2023-05-07T02:25:31.205Z,2.45
2023-05-07T02:27:59.186Z,2.67
2023-05-07T02:30:38.737Z,2.53
2023-05-07T02:33:05.703Z,2.95
2023-05-07T02:35:32.385Z,2.95
2023-05-07T02:38:00.510Z,2.88
2023-05-07T02:40:27.449Z,2.45
2023-05-07T02:42:54.182Z,2.67
2023-05-07T02:45:20.930Z,3.17
2023-05-07T02:47:50.390Z,2.50
2023-05-07T02:50:18.380Z,2.35
2023-05-07T02:52:45.053Z,2.20
2023-05-07T02:55:11.860Z,1.88
2023-05-07T02:57:39.520Z,2.25
2023-05-07T03:00:20.488Z,2.50
2023-05-07T03:03:08.325Z,3.15
2023-05-07T03:05:35.120Z,3.28
2023-05-07T03:08:01.743Z,3.65
2023-05-07T03:10:28.474Z,3.60
2023-05-07T03:12:55.152Z,3.28
2023-05-07T03:15:22.735Z,3.58
2023-05-07T03:17:50.005Z,2.10
2023-05-07T03:20:17.046Z,2.63
2023-05-07T03:22:43.942Z,3.33
2023-05-07T03:25:11.150Z,2.80
2023-05-07T03:27:39.045Z,2.45
2023-05-07T03:30:07.930Z,2.40
2023-05-07T03:32:34.691Z,2.45
2023-05-07T03:35:01.684Z,2.50
2023-05-07T03:37:28.370Z,2.40
2023-05-07T03:39:55.888Z,2.13
2023-05-07T03:42:22.705Z,2.10
2023-05-07T03:44:51.842Z,2.45
2023-05-07T03:47:18.699Z,2.08
2023-05-07T03:49:46.589Z,1.90
2023-05-07T03:52:14.705Z,1.83
2023-05-07T03:54:41.427Z,2.22
2023-05-07T03:57:08.350Z,1.95
2023-05-07T03:59:35.195Z,1.88
2023-05-07T04:02:05.071Z,2.13
2023-05-07T04:04:34.126Z,1.92
2023-05-07T04:07:01.677Z,2.20
2023-05-07T04:09:31.891Z,2.30
2023-05-07T04:11:58.550Z,2.40
2023-05-07T04:14:25.272Z,2.80
2023-05-07T04:16:52.462Z,2.67
2023-05-07T04:19:19.414Z,2.80
2023-05-07T04:21:48.794Z,3.42
2023-05-07T04:24:15.409Z,3.67
2023-05-07T04:26:42.298Z,2.88
2023-05-07T04:29:09.528Z,2.45
2023-05-07T04:31:36.474Z,2.60
2023-05-07T04:34:03.182Z,2.85
2023-05-07T04:36:30.192Z,1.95
2023-05-07T04:39:04.261Z,2.13
2023-05-07T04:41:31.575Z,2.47
2023-05-07T04:43:59.987Z,1.98
2023-05-07T04:46:29.407Z,1.77
2023-05-07T04:48:57.632Z,2.63
2023-05-07T04:51:24.485Z,2.30
2023-05-07T04:53:51.554Z,1.98
2023-05-07T04:56:18.390Z,2.40
2023-05-07T04:58:47.053Z,2.58
2023-05-07T05:01:14.990Z,2.30
2023-05-07T05:03:42.552Z,2.03
2023-05-07T05:06:09.480Z,1.75
2023-05-07T05:08:36.976Z,2.33
2023-05-07T05:11:04.754Z,2.45
2023-05-07T05:13:34.385Z,2.03
2023-05-07T05:16:06.976Z,2.33
2023-05-07T05:18:34.133Z,2.30
2023-05-07T05:21:00.955Z,2.38
2023-05-07T05:23:28.590Z,2.42
2023-05-07T05:25:59.374Z,1.98
2023-05-07T05:28:29.825Z,2.60
2023-05-07T05:30:57.216Z,2.20
2023-05-07T05:33:26.038Z,2.20
2023-05-07T05:35:52.704Z,2.22
2023-05-07T05:38:19.685Z,2.33
2023-05-07T05:40:46.841Z,2.60
2023-05-07T05:43:15.015Z,1.73
2023-05-07T05:45:41.679Z,1.90
2023-05-07T05:48:09.531Z,1.98
2023-05-07T05:50:39.424Z,2.30
2023-05-07T05:53:07.711Z,2.03
2023-05-07T05:55:35.046Z,2.50
2023-05-07T05:58:02.317Z,2.28
2023-05-07T06:00:30.767Z,1.98
2023-05-07T06:03:02.835Z,2.10
2023-05-07T06:05:29.799Z,2.33
2023-05-07T06:07:57.650Z,2.03
2023-05-07T06:10:27.291Z,1.85
2023-05-07T06:12:54.873Z,1.98
2023-05-07T06:15:22.193Z,1.83
2023-05-07T06:17:50.198Z,1.83
2023-05-07T06:20:17.216Z,1.95
2023-05-07T06:22:49.495Z,1.67
2023-05-07T06:25:17.136Z,2.20
2023-05-07T06:27:44.210Z,1.85
2023-05-07T06:30:11.584Z,2.10
2023-05-07T06:32:38.806Z,1.73
2023-05-07T06:35:06.319Z,2.70
2023-05-07T06:37:35.845Z,2.10
2023-05-07T06:40:09.522Z,1.95
2023-05-07T06:42:39.411Z,2.17
2023-05-07T06:45:23.444Z,1.88
2023-05-07T06:47:50.374Z,2.25
2023-05-07T06:50:18.133Z,1.85
2023-05-07T06:52:45.371Z,1.30
2023-05-07T06:55:12.246Z,1.85
2023-05-07T06:57:39.341Z,1.63
2023-05-07T07:00:11.356Z,1.90
2023-05-07T07:02:53.995Z,1.80
2023-05-07T07:05:23.928Z,1.85
2023-05-07T07:07:53.749Z,1.42
2023-05-07T07:10:21.927Z,1.50
2023-05-07T07:12:54.376Z,1.73
2023-05-07T07:15:22.061Z,1.80
2023-05-07T07:17:50.234Z,1.90
2023-05-07T07:20:17.438Z,1.38
2023-05-07T07:22:45.798Z,1.73
2023-05-07T07:25:13.093Z,1.20
2023-05-07T07:27:41.305Z,1.60
2023-05-07T07:30:12.893Z,2.08
2023-05-07T07:32:45.587Z,1.70
2023-05-07T07:35:12.672Z,1.60
2023-05-07T07:37:39.977Z,1.77
2023-05-07T07:40:07.823Z,1.70
2023-05-07T07:42:35.552Z,1.58
2023-05-07T07:45:02.693Z,1.40
2023-05-07T07:47:33.707Z,1.20
2023-05-07T07:50:00.588Z,1.33
2023-05-07T07:52:27.574Z,1.70
2023-05-07T07:54:54.565Z,1.10
2023-05-07T07:57:22.349Z,1.65
2023-05-07T07:59:50.083Z,1.05
2023-05-07T08:02:20.110Z,1.00
2023-05-07T08:04:47.492Z,1.55
2023-05-07T08:07:14.497Z,1.60
2023-05-07T08:09:44.029Z,1.08
2023-05-07T08:12:14.296Z,1.27
2023-05-07T08:14:43.995Z,1.13
2023-05-07T08:17:11.825Z,1.17
2023-05-07T08:19:40.821Z,0.95
2023-05-07T08:22:12.792Z,1.20
2023-05-07T08:24:40.012Z,1.30
2023-05-07T08:27:07.051Z,1.08
2023-05-07T08:29:35.431Z,1.17
2023-05-07T08:32:02.597Z,1.23
2023-05-07T08:34:29.603Z,1.30
2023-05-07T08:36:58.403Z,1.17
2023-05-07T08:39:25.886Z,1.00
2023-05-07T08:41:59.422Z,1.63
2023-05-07T08:44:36.655Z,1.25
2023-05-07T08:47:03.828Z,1.38
2023-05-07T08:49:34.528Z,1.45
2023-05-07T08:52:05.626Z,1.50
2023-05-07T08:54:40.956Z,1.30
2023-05-07T08:57:10.389Z,1.25
2023-05-07T08:59:37.997Z,1.38
2023-05-07T09:02:10.222Z,1.33
2023-05-07T09:04:37.564Z,1.30
2023-05-07T09:07:09.102Z,1.27
2023-05-07T09:09:40.930Z,1.30
2023-05-07T09:12:08.466Z,1.50
2023-05-07T09:14:36.961Z,1.40
2023-05-07T09:17:04.954Z,1.17
2023-05-07T09:19:32.860Z,1.17
2023-05-07T09:22:06.047Z,1.52
2023-05-07T09:24:57.097Z,1.45
2023-05-07T09:27:27.585Z,1.30
2023-05-07T09:29:56.429Z,1.10
2023-05-07T09:32:35.763Z,1.35
2023-05-07T09:35:03.835Z,1.00
2023-05-07T09:37:33.281Z,1.00
2023-05-07T09:40:00.750Z,1.00
2023-05-07T09:42:32.796Z,1.15
2023-05-07T09:45:07.330Z,1.20
2023-05-07T09:48:09.577Z,1.33
2023-05-07T09:51:00.485Z,1.55
2023-05-07T09:53:40.351Z,1.10
2023-05-07T09:56:12.150Z,1.00
2023-05-07T09:58:42.721Z,1.00
2023-05-07T10:01:12.172Z,1.10
2023-05-07T10:03:43.620Z,0.85
2023-05-07T10:06:11.703Z,1.30
2023-05-07T10:08:40.126Z,1.60
2023-05-07T10:11:08.608Z,1.20
2023-05-07T10:13:36.920Z,0.90
2023-05-07T10:16:07.303Z,1.17
2023-05-07T10:18:42.088Z,1.25
2023-05-07T10:21:28.134Z,0.80
2023-05-07T10:24:07.119Z,1.23
2023-05-07T10:29:08.940Z,1.33
2023-05-07T10:31:56.305Z,0.90
2023-05-07T10:34:29.217Z,1.00
2023-05-07T10:36:58.991Z,1.10
2023-05-07T10:39:26.643Z,1.95
2023-05-07T10:41:53.993Z,1.30
2023-05-07T10:44:28.961Z,1.42
2023-05-07T10:47:16.407Z,1.27
2023-05-07T10:49:46.428Z,1.52
2023-05-07T10:52:25.694Z,1.10
2023-05-07T10:55:30.853Z,1.52
2023-05-07T10:58:38.741Z,1.17
2023-05-07T11:01:18.059Z,1.20
2023-05-07T11:04:16.299Z,1.25
2023-05-07T11:07:07.369Z,1.20
2023-05-07T11:09:54.768Z,1.40
2023-05-07T11:12:40.068Z,1.30
2023-05-07T11:15:34.467Z,1.13
2023-05-07T11:18:07.499Z,1.00
2023-05-07T11:21:01.914Z,1.55
2023-05-07T11:23:43.214Z,1.15
2023-05-07T11:26:20.908Z,0.98
2023-05-07T11:28:49.406Z,1.27
2023-05-07T11:31:23.075Z,1.20
2023-05-07T11:33:50.997Z,1.27
2023-05-07T11:36:21.949Z,1.70
2023-05-07T11:38:51.074Z,2.15
2023-05-07T11:41:19.609Z,1.20
2023-05-07T11:44:08.625Z,1.23
2023-05-07T11:46:35.840Z,1.25
2023-05-07T11:49:02.843Z,1.10
2023-05-07T11:51:29.633Z,1.20
2023-05-07T11:53:56.496Z,1.25
2023-05-07T11:56:23.406Z,1.25
2023-05-07T11:58:50.730Z,1.30
2023-05-07T12:01:17.619Z,1.20
2023-05-07T12:03:47.028Z,1.00
2023-05-07T12:06:17.233Z,1.20
2023-05-07T12:08:47.054Z,1.20
2023-05-07T12:11:26.308Z,1.30
2023-05-07T12:13:59.137Z,1.17
2023-05-07T12:16:27.359Z,1.40
2023-05-07T12:18:57.309Z,1.10
2023-05-07T12:21:25.293Z,1.27
2023-05-07T12:23:52.099Z,0.98
2023-05-07T12:26:21.834Z,0.95
2023-05-07T12:28:50.948Z,1.10
2023-05-07T12:31:18.114Z,1.27
2023-05-07T12:33:45.419Z,1.10
2023-05-07T12:36:13.772Z,0.70
2023-05-07T12:38:41.872Z,1.10
2023-05-07T12:41:11.101Z,1.13
2023-05-07T12:43:37.918Z,1.10
2023-05-07T12:46:07.746Z,1.20
2023-05-07T12:48:36.898Z,1.17
2023-05-07T12:51:04.036Z,1.70
2023-05-07T12:53:32.222Z,1.20
2023-05-07T12:56:00.678Z,1.58
2023-05-07T12:58:27.966Z,1.38
2023-05-07T13:01:01.625Z,1.40
2023-05-07T13:03:35.946Z,1.70
2023-05-07T13:06:08.149Z,1.10
2023-05-07T13:08:41.527Z,1.25
2023-05-07T13:11:09.495Z,1.42
2023-05-07T13:13:37.988Z,1.30
2023-05-07T13:16:06.502Z,1.10
2023-05-07T13:18:34.535Z,1.10
2023-05-07T13:21:02.062Z,1.70
2023-05-07T13:23:29.479Z,1.40
2023-05-07T13:25:56.941Z,1.50
2023-05-07T13:28:27.316Z,1.17
2023-05-07T13:30:55.488Z,0.98
2023-05-07T13:33:22.437Z,1.00
2023-05-07T13:35:49.127Z,0.93
2023-05-07T13:38:17.267Z,1.15
2023-05-07T13:40:44.205Z,1.08
2023-05-07T13:43:11.684Z,1.20
2023-05-07T13:45:38.653Z,1.30
2023-05-07T13:48:06.006Z,1.42
2023-05-07T13:50:32.777Z,1.30
2023-05-07T13:52:59.451Z,1.23
2023-05-07T13:55:26.347Z,1.17
2023-05-07T13:57:58.072Z,1.02
2023-05-07T14:00:25.882Z,1.30
2023-05-07T14:02:52.757Z,1.08
2023-05-07T14:05:20.232Z,1.25
2023-05-07T14:07:48.300Z,1.25
2023-05-07T14:10:15.314Z,1.10
2023-05-07T14:12:42.616Z,1.20
2023-05-07T14:15:10.828Z,1.70
2023-05-07T14:17:38.392Z,1.38
2023-05-07T14:20:09.950Z,1.40
2023-05-07T14:22:37.488Z,1.45
2023-05-07T14:25:13.950Z,1.50
2023-05-07T14:27:48.778Z,1.60
2023-05-07T14:30:15.611Z,1.20
2023-05-07T14:32:44.202Z,1.25
2023-05-07T14:35:11.519Z,1.42
2023-05-07T14:37:38.592Z,1.40
2023-05-07T14:40:06.241Z,1.38
2023-05-07T14:42:32.928Z,1.30
2023-05-07T14:44:59.631Z,1.20
2023-05-07T14:47:27.536Z,1.15
2023-05-07T14:49:55.653Z,1.27
2023-05-07T14:52:22.337Z,1.20
2023-05-07T14:54:49.086Z,1.40
2023-05-07T14:57:17.347Z,1.25
2023-05-07T14:59:44.457Z,1.10
2023-05-07T15:02:16.165Z,1.13
2023-05-07T15:04:48.737Z,1.40
2023-05-07T15:07:17.956Z,1.63
2023-05-07T15:09:56.774Z,1.55
2023-05-07T15:12:26.375Z,1.40
2023-05-07T15:15:02.019Z,1.80
2023-05-07T15:17:41.677Z,1.27
2023-05-07T15:20:21.438Z,1.38
2023-05-07T15:22:49.772Z,1.33
2023-05-07T15:25:16.990Z,1.10
2023-05-07T15:28:19.816Z,1.50
2023-05-07T15:30:59.731Z,1.70
2023-05-07T15:33:30.945Z,1.17
2023-05-07T15:36:00.848Z,1.55
2023-05-07T15:38:35.399Z,1.42
2023-05-07T15:41:10.504Z,1.30
2023-05-07T15:43:49.230Z,1.45
2023-05-07T15:46:21.060Z,2.20
2023-05-07T15:48:48.231Z,1.58
2023-05-07T15:51:15.057Z,1.77
2023-05-07T15:53:44.102Z,1.58
2023-05-07T15:56:22.092Z,1.33
2023-05-07T15:59:01.585Z,1.70
2023-05-07T16:01:29.458Z,1.55
2023-05-07T16:04:08.172Z,1.33
2023-05-07T16:06:35.626Z,1.95
2023-05-07T16:09:02.638Z,2.17
2023-05-07T16:11:30.930Z,1.88
2023-05-07T16:14:43.811Z,1.60
2023-05-07T16:17:29.317Z,1.75
2023-05-07T16:20:39.347Z,1.83
2023-05-07T16:23:20.972Z,1.60
2023-05-07T16:26:21.285Z,1.70
2023-05-07T16:29:11.941Z,1.30
2023-05-07T16:31:49.855Z,1.75
2023-05-07T16:34:35.934Z,1.30
2023-05-07T16:40:44.230Z,1.33
2023-05-07T16:43:33.891Z,2.17
2023-05-07T16:46:14.700Z,1.85
2023-05-07T16:48:45.474Z,1.55
2023-05-07T16:51:12.314Z,1.63
2023-05-07T16:53:39.163Z,1.60
2023-05-07T16:56:06.940Z,1.95
2023-05-07T16:58:40.504Z,1.80
2023-05-07T17:01:07.410Z,1.83
2023-05-07T17:03:34.548Z,2.40
2023-05-07T17:06:04.502Z,1.75
2023-05-07T17:08:37.141Z,1.90
2023-05-07T17:11:11.512Z,1.67
2023-05-07T17:13:46.784Z,1.73
2023-05-07T17:16:21.477Z,1.35
2023-05-07T17:19:20.067Z,1.70
2023-05-07T17:22:05.480Z,1.48
2023-05-07T17:24:32.635Z,1.90
2023-05-07T17:27:08.479Z,2.22
2023-05-07T17:29:57.760Z,2.00
2023-05-07T17:32:42.289Z,1.63
2023-05-07T17:35:19.666Z,1.75
2023-05-07T17:37:57.379Z,2.95
2023-05-07T17:40:44.050Z,1.80
2023-05-07T17:43:53.024Z,2.22
2023-05-07T17:47:27.814Z,1.95
2023-05-07T17:50:35.049Z,2.38
2023-05-07T17:53:11.123Z,3.33
2023-05-07T17:56:05.905Z,3.03
2023-05-07T18:24:18.981Z,2.28
2023-05-07T18:26:52.413Z,2.22
2023-05-07T18:29:21.922Z,2.55
2023-05-07T18:31:52.579Z,1.90
2023-05-07T18:34:27.572Z,2.42
2023-05-07T18:36:58.778Z,2.47
2023-05-07T18:39:26.465Z,2.10
2023-05-07T18:41:53.493Z,2.13
2023-05-07T18:44:20.379Z,1.88
2023-05-07T18:46:48.713Z,1.88
2023-05-07T18:49:15.720Z,2.10
2023-05-07T18:51:47.961Z,2.17
2023-05-07T18:54:28.055Z,2.25
2023-05-07T18:56:54.890Z,2.53
2023-05-07T18:59:22.333Z,2.00
2023-05-07T19:01:54.839Z,2.10
2023-05-07T19:04:21.817Z,1.83
2023-05-07T19:06:51.320Z,2.20
2023-05-07T19:09:18.128Z,1.73
2023-05-07T19:11:45.038Z,2.35
2023-05-07T19:14:12.026Z,2.22
2023-05-07T19:16:38.963Z,2.17
2023-05-07T19:19:06.746Z,2.53
2023-05-07T19:21:37.096Z,2.10
2023-05-07T19:24:04.760Z,2.17
2023-05-07T19:26:32.743Z,2.25
2023-05-07T19:29:16.393Z,1.83
2023-05-07T19:31:45.538Z,1.75
2023-05-07T19:34:16.321Z,2.08
2023-05-07T19:36:45.387Z,1.63
2023-05-07T19:39:18.071Z,1.95
2023-05-07T19:41:46.179Z,1.90
2023-05-07T19:44:18.897Z,2.50
2023-05-07T19:46:52.841Z,1.58
2023-05-07T19:49:22.434Z,1.52
2023-05-07T19:51:49.673Z,2.03
2023-05-07T19:54:23.169Z,1.23
2023-05-07T19:56:50.693Z,2.00
2023-05-07T19:59:22.285Z,1.92
2023-05-07T20:01:50.236Z,2.13
2023-05-07T20:04:17.708Z,2.30
2023-05-07T20:06:45.175Z,2.22
2023-05-07T20:09:16.677Z,2.50
2023-05-07T20:11:44.440Z,1.92
2023-05-07T20:14:13.389Z,2.95
2023-05-07T20:16:46.109Z,2.15
2023-05-07T20:19:14.159Z,2.38
2023-05-07T20:21:41.895Z,2.30
2023-05-07T20:24:13.972Z,1.60
2023-05-07T20:26:43.480Z,1.77
2023-05-07T20:29:17.180Z,1.80
2023-05-07T20:31:45.540Z,1.67
2023-05-07T20:34:13.227Z,2.10
2023-05-07T20:36:41.296Z,2.22
2023-05-07T20:39:09.974Z,2.33
2023-05-07T20:41:37.795Z,2.20
2023-05-07T20:44:05.808Z,1.90
2023-05-07T20:46:33.325Z,1.67
2023-05-07T20:49:00.831Z,1.65
2023-05-07T20:51:32.402Z,1.58
2023-05-07T20:54:00.262Z,2.15
2023-05-07T20:56:28.082Z,2.03
2023-05-07T20:58:55.762Z,1.73
2023-05-07T21:01:23.370Z,1.80
2023-05-07T21:03:54.324Z,1.85
2023-05-07T21:06:22.249Z,1.58
2023-05-07T21:12:55.475Z,2.08
2023-05-07T21:15:24.701Z,1.80
2023-05-07T21:17:51.504Z,1.42
2023-05-07T21:20:18.551Z,1.48
2023-05-07T21:22:45.428Z,2.10
2023-05-07T21:25:13.534Z,1.85
2023-05-07T21:27:41.188Z,1.70
2023-05-07T21:30:08.823Z,1.55
2023-05-07T21:32:35.655Z,1.67
2023-05-07T21:35:08.212Z,1.45
2023-05-07T21:37:35.014Z,1.65
2023-05-07T21:40:02.271Z,1.90
2023-05-07T21:42:29.160Z,1.60
2023-05-07T21:44:55.922Z,1.60
2023-05-07T21:47:22.723Z,1.60
2023-05-07T21:49:49.742Z,1.52
2023-05-07T21:52:17.531Z,1.45
2023-05-07T21:54:44.222Z,1.65
2023-05-07T21:57:10.940Z,1.45
2023-05-07T21:59:38.199Z,1.70
2023-05-07T22:02:05.591Z,1.95
2023-05-07T22:04:32.204Z,1.90
2023-05-07T22:06:58.892Z,1.45
2023-05-07T22:09:25.519Z,1.23
2023-05-07T22:11:52.213Z,1.70
2023-05-07T22:14:19.163Z,1.60
2023-05-07T22:16:47.730Z,1.98
2023-05-07T22:19:15.089Z,1.73
2023-05-07T22:21:41.915Z,1.80
2023-05-07T22:24:08.540Z,1.80
2023-05-07T22:26:35.208Z,1.98
2023-05-07T22:29:01.908Z,2.03
2023-05-07T22:31:28.871Z,1.50
2023-05-07T22:33:55.737Z,1.95
2023-05-07T22:36:23.578Z,1.88
2023-05-07T22:38:50.232Z,1.90
2023-05-07T22:41:17.307Z,2.40
2023-05-07T22:43:43.979Z,2.35
2023-05-07T22:46:10.782Z,2.05
2023-05-07T22:48:37.479Z,1.73
2023-05-07T22:51:04.254Z,1.88
2023-05-07T22:53:33.572Z,1.67
2023-05-07T22:56:06.245Z,1.48
2023-05-07T22:58:34.275Z,2.10
2023-05-07T23:01:02.357Z,1.90
2023-05-07T23:03:29.558Z,2.10
2023-05-07T23:05:58.378Z,1.90
2023-05-07T23:08:25.152Z,2.00
2023-05-07T23:10:51.763Z,1.85
2023-05-07T23:13:19.455Z,1.48
2023-05-07T23:15:55.591Z,1.45
2023-05-07T23:18:27.986Z,1.98
2023-05-07T23:20:55.199Z,1.73
2023-05-07T23:23:22.153Z,1.98
2023-05-07T23:25:53.073Z,1.50
2023-05-07T23:28:22.710Z,1.98
2023-05-07T23:30:49.733Z,2.05
2023-05-07T23:33:16.792Z,1.70
2023-05-07T23:35:43.563Z,1.83
2023-05-07T23:38:12.622Z,1.98
2023-05-07T23:40:39.364Z,1.40
2023-05-07T23:43:06.118Z,1.85
2023-05-07T23:45:32.965Z,1.98
2023-05-07T23:47:59.811Z,1.50
2023-05-07T23:50:26.609Z,1.70
2023-05-07T23:52:53.381Z,1.60
2023-05-07T23:55:20.158Z,1.52
2023-05-07T23:57:46.998Z,2.10
